sensor_id;sensor_type;location;lat;lon;timestamp;P1;durP1;ratioP1;P2;durP2;ratioP2
57667;SDS011;43499;52.366;12.912;2022-09-17T00:00:49;6.85;;;2.10;;
57667;SDS011;43499;52.366;12.912;2022-09-17T00:01:52;6.75;;;1.88;;
57667;SDS011;43499;52.366;12.912;2022-09-17T00:02:53;6.13;;;2.30;;
57667;SDS011;43499;52.366;12.912;2022-09-17T00:03:56;5.03;;;1.88;;
57667;SDS011;43499;52.366;12.912;2022-09-17T00:05:03;12.73;;;2.08;;
57667;SDS011;43499;52.366;12.912;2022-09-17T00:06:06;9.00;;;1.77;;
57667;SDS011;43499;52.366;12.912;2022-09-17T00:07:08;3.03;;;1.60;;
57667;SDS011;43499;52.366;12.912;2022-09-17T00:08:10;6.07;;;1.77;;
57667;SDS011;43499;52.366;12.912;2022-09-17T00:09:13;9.75;;;2.40;;
57667;SDS011;43499;52.366;12.912;2022-09-17T00:10:15;8.80;;;2.58;;
57667;SDS011;43499;52.366;12.912;2022-09-17T00:11:50;2.97;;;1.70;;
57667;SDS011;43499;52.366;12.912;2022-09-17T00:12:43;6.85;;;2.15;;
57667;SDS011;43499;52.366;12.912;2022-09-17T00:13:45;7.93;;;2.20;;
57667;SDS011;43499;52.366;12.912;2022-09-17T00:14:46;5.60;;;2.15;;
57667;SDS011;43499;52.366;12.912;2022-09-17T00:15:47;5.70;;;1.92;;
57667;SDS011;43499;52.366;12.912;2022-09-17T00:16:49;6.85;;;2.08;;
57667;SDS011;43499;52.366;12.912;2022-09-17T00:17:56;8.00;;;1.70;;
57667;SDS011;43499;52.366;12.912;2022-09-17T00:18:58;6.20;;;2.38;;
57667;SDS011;43499;52.366;12.912;2022-09-17T00:19:59;7.53;;;2.03;;
57667;SDS011;43499;52.366;12.912;2022-09-17T00:21:00;4.07;;;1.90;;
57667;SDS011;43499;52.366;12.912;2022-09-17T00:22:02;8.45;;;1.80;;
57667;SDS011;43499;52.366;12.912;2022-09-17T00:23:03;6.60;;;2.10;;
57667;SDS011;43499;52.366;12.912;2022-09-17T00:24:04;8.85;;;2.08;;
57667;SDS011;43499;52.366;12.912;2022-09-17T00:25:06;2.70;;;1.55;;
57667;SDS011;43499;52.366;12.912;2022-09-17T00:26:08;7.80;;;2.30;;
57667;SDS011;43499;52.366;12.912;2022-09-17T00:27:09;8.30;;;1.88;;
57667;SDS011;43499;52.366;12.912;2022-09-17T00:28:10;8.75;;;1.98;;
57667;SDS011;43499;52.366;12.912;2022-09-17T00:29:13;6.25;;;2.08;;
57667;SDS011;43499;52.366;12.912;2022-09-17T00:30:15;6.68;;;1.90;;
57667;SDS011;43499;52.366;12.912;2022-09-17T00:31:16;6.38;;;1.88;;
57667;SDS011;43499;52.366;12.912;2022-09-17T00:32:17;3.40;;;2.08;;
57667;SDS011;43499;52.366;12.912;2022-09-17T00:33:18;9.18;;;2.25;;
57667;SDS011;43499;52.366;12.912;2022-09-17T00:34:19;9.85;;;2.33;;
57667;SDS011;43499;52.366;12.912;2022-09-17T00:35:20;4.75;;;1.70;;
57667;SDS011;43499;52.366;12.912;2022-09-17T00:36:21;8.23;;;2.22;;
57667;SDS011;43499;52.366;12.912;2022-09-17T00:37:23;10.63;;;2.55;;
57667;SDS011;43499;52.366;12.912;2022-09-17T00:38:24;9.18;;;2.33;;
57667;SDS011;43499;52.366;12.912;2022-09-17T00:39:25;8.20;;;2.15;;
57667;SDS011;43499;52.366;12.912;2022-09-17T00:40:26;6.93;;;2.25;;
57667;SDS011;43499;52.366;12.912;2022-09-17T00:41:28;7.82;;;2.10;;
57667;SDS011;43499;52.366;12.912;2022-09-17T00:42:31;12.95;;;2.15;;
57667;SDS011;43499;52.366;12.912;2022-09-17T00:43:42;5.63;;;1.75;;
57667;SDS011;43499;52.366;12.912;2022-09-17T00:45:53;4.38;;;1.98;;
57667;SDS011;43499;52.366;12.912;2022-09-17T00:46:54;10.70;;;2.63;;
57667;SDS011;43499;52.366;12.912;2022-09-17T00:47:56;8.60;;;2.22;;
57667;SDS011;43499;52.366;12.912;2022-09-17T00:49:01;5.60;;;2.15;;
57667;SDS011;43499;52.366;12.912;2022-09-17T00:51:14;6.88;;;2.28;;
57667;SDS011;43499;52.366;12.912;2022-09-17T00:52:19;7.20;;;1.90;;
57667;SDS011;43499;52.366;12.912;2022-09-17T00:53:24;13.07;;;2.28;;
57667;SDS011;43499;52.366;12.912;2022-09-17T00:54:25;6.10;;;2.33;;
57667;SDS011;43499;52.366;12.912;2022-09-17T00:55:28;4.90;;;2.42;;
57667;SDS011;43499;52.366;12.912;2022-09-17T00:56:33;5.93;;;2.00;;
57667;SDS011;43499;52.366;12.912;2022-09-17T00:57:36;6.30;;;2.20;;
57667;SDS011;43499;52.366;12.912;2022-09-17T00:58:37;9.90;;;2.67;;
57667;SDS011;43499;52.366;12.912;2022-09-17T00:59:39;7.80;;;2.40;;
57667;SDS011;43499;52.366;12.912;2022-09-17T01:00:40;9.00;;;2.45;;
57667;SDS011;43499;52.366;12.912;2022-09-17T01:01:41;13.30;;;2.03;;
57667;SDS011;43499;52.366;12.912;2022-09-17T01:02:43;5.45;;;2.40;;
57667;SDS011;43499;52.366;12.912;2022-09-17T01:03:44;5.18;;;2.30;;
57667;SDS011;43499;52.366;12.912;2022-09-17T01:04:45;10.10;;;2.50;;
57667;SDS011;43499;52.366;12.912;2022-09-17T01:05:58;7.85;;;2.20;;
57667;SDS011;43499;52.366;12.912;2022-09-17T01:07:23;5.35;;;2.05;;
57667;SDS011;43499;52.366;12.912;2022-09-17T01:08:52;11.30;;;2.78;;
57667;SDS011;43499;52.366;12.912;2022-09-17T01:11:45;6.80;;;2.25;;
57667;SDS011;43499;52.366;12.912;2022-09-17T01:14:32;10.52;;;2.83;;
57667;SDS011;43499;52.366;12.912;2022-09-17T01:15:50;10.45;;;2.47;;
57667;SDS011;43499;52.366;12.912;2022-09-17T01:18:53;10.13;;;3.00;;
57667;SDS011;43499;52.366;12.912;2022-09-17T01:21:45;7.22;;;2.38;;
57667;SDS011;43499;52.366;12.912;2022-09-17T01:25:57;7.38;;;3.03;;
57667;SDS011;43499;52.366;12.912;2022-09-17T01:27:33;11.38;;;2.65;;
57667;SDS011;43499;52.366;12.912;2022-09-17T01:28:48;6.95;;;2.50;;
57667;SDS011;43499;52.366;12.912;2022-09-17T01:30:13;9.05;;;2.63;;
57667;SDS011;43499;52.366;12.912;2022-09-17T01:32:43;7.55;;;2.38;;
57667;SDS011;43499;52.366;12.912;2022-09-17T01:34:06;7.45;;;3.67;;
57667;SDS011;43499;52.366;12.912;2022-09-17T01:39:25;9.23;;;3.00;;
57667;SDS011;43499;52.366;12.912;2022-09-17T01:40:35;6.53;;;2.10;;
57667;SDS011;43499;52.366;12.912;2022-09-17T01:42:05;5.35;;;2.50;;
57667;SDS011;43499;52.366;12.912;2022-09-17T01:43:23;5.68;;;2.28;;
57667;SDS011;43499;52.366;12.912;2022-09-17T01:44:34;8.35;;;3.55;;
57667;SDS011;43499;52.366;12.912;2022-09-17T01:45:45;9.13;;;2.28;;
57667;SDS011;43499;52.366;12.912;2022-09-17T01:46:54;7.90;;;3.00;;
57667;SDS011;43499;52.366;12.912;2022-09-17T01:48:03;5.32;;;2.25;;
57667;SDS011;43499;52.366;12.912;2022-09-17T01:49:11;14.65;;;3.30;;
57667;SDS011;43499;52.366;12.912;2022-09-17T01:50:20;6.20;;;3.63;;
57667;SDS011;43499;52.366;12.912;2022-09-17T01:51:28;5.63;;;2.15;;
57667;SDS011;43499;52.366;12.912;2022-09-17T01:52:36;4.93;;;2.25;;
57667;SDS011;43499;52.366;12.912;2022-09-17T01:53:42;3.60;;;2.38;;
57667;SDS011;43499;52.366;12.912;2022-09-17T01:54:49;5.72;;;2.38;;
57667;SDS011;43499;52.366;12.912;2022-09-17T01:55:54;13.52;;;2.83;;
57667;SDS011;43499;52.366;12.912;2022-09-17T01:57:04;9.20;;;2.50;;
57667;SDS011;43499;52.366;12.912;2022-09-17T01:58:15;4.72;;;2.50;;
57667;SDS011;43499;52.366;12.912;2022-09-17T01:59:26;4.15;;;2.60;;
57667;SDS011;43499;52.366;12.912;2022-09-17T02:00:31;6.55;;;2.28;;
57667;SDS011;43499;52.366;12.912;2022-09-17T02:01:32;6.97;;;2.75;;
57667;SDS011;43499;52.366;12.912;2022-09-17T02:02:42;10.10;;;2.42;;
57667;SDS011;43499;52.366;12.912;2022-09-17T02:03:51;13.68;;;2.70;;
57667;SDS011;43499;52.366;12.912;2022-09-17T02:05:03;12.05;;;3.42;;
57667;SDS011;43499;52.366;12.912;2022-09-17T02:06:14;4.10;;;2.30;;
57667;SDS011;43499;52.366;12.912;2022-09-17T02:07:19;8.43;;;2.10;;
57667;SDS011;43499;52.366;12.912;2022-09-17T02:08:25;8.52;;;2.30;;
57667;SDS011;43499;52.366;12.912;2022-09-17T02:09:33;5.43;;;2.70;;
57667;SDS011;43499;52.366;12.912;2022-09-17T02:10:41;6.07;;;2.30;;
57667;SDS011;43499;52.366;12.912;2022-09-17T02:11:46;6.53;;;2.10;;
57667;SDS011;43499;52.366;12.912;2022-09-17T02:12:56;9.48;;;2.58;;
57667;SDS011;43499;52.366;12.912;2022-09-17T02:14:02;6.32;;;2.47;;
57667;SDS011;43499;52.366;12.912;2022-09-17T02:15:09;6.32;;;2.10;;
57667;SDS011;43499;52.366;12.912;2022-09-17T02:16:21;9.18;;;2.20;;
57667;SDS011;43499;52.366;12.912;2022-09-17T02:17:26;11.15;;;2.58;;
57667;SDS011;43499;52.366;12.912;2022-09-17T02:18:59;5.10;;;2.35;;
57667;SDS011;43499;52.366;12.912;2022-09-17T02:20:02;9.80;;;2.30;;
57667;SDS011;43499;52.366;12.912;2022-09-17T02:21:06;5.93;;;2.20;;
57667;SDS011;43499;52.366;12.912;2022-09-17T02:23:33;10.38;;;3.10;;
57667;SDS011;43499;52.366;12.912;2022-09-17T02:24:36;6.53;;;2.20;;
57667;SDS011;43499;52.366;12.912;2022-09-17T02:26:53;4.20;;;2.00;;
57667;SDS011;43499;52.366;12.912;2022-09-17T02:28:01;8.00;;;2.60;;
57667;SDS011;43499;52.366;12.912;2022-09-17T02:29:06;8.20;;;2.45;;
57667;SDS011;43499;52.366;12.912;2022-09-17T02:30:11;9.80;;;2.85;;
57667;SDS011;43499;52.366;12.912;2022-09-17T02:31:13;6.20;;;2.80;;
57667;SDS011;43499;52.366;12.912;2022-09-17T02:32:14;15.18;;;2.30;;
57667;SDS011;43499;52.366;12.912;2022-09-17T02:33:15;6.47;;;2.45;;
57667;SDS011;43499;52.366;12.912;2022-09-17T02:34:18;9.02;;;3.33;;
57667;SDS011;43499;52.366;12.912;2022-09-17T02:35:20;9.02;;;2.70;;
57667;SDS011;43499;52.366;12.912;2022-09-17T02:36:21;8.15;;;2.42;;
57667;SDS011;43499;52.366;12.912;2022-09-17T02:37:23;8.88;;;2.85;;
57667;SDS011;43499;52.366;12.912;2022-09-17T02:38:24;12.23;;;3.03;;
57667;SDS011;43499;52.366;12.912;2022-09-17T02:39:26;3.47;;;2.60;;
57667;SDS011;43499;52.366;12.912;2022-09-17T02:40:28;7.50;;;2.65;;
57667;SDS011;43499;52.366;12.912;2022-09-17T02:41:57;7.18;;;2.33;;
57667;SDS011;43499;52.366;12.912;2022-09-17T02:43:08;8.55;;;2.72;;
57667;SDS011;43499;52.366;12.912;2022-09-17T02:45:41;5.68;;;2.45;;
57667;SDS011;43499;52.366;12.912;2022-09-17T02:47:22;6.95;;;2.67;;
57667;SDS011;43499;52.366;12.912;2022-09-17T02:49:03;11.05;;;2.45;;
57667;SDS011;43499;52.366;12.912;2022-09-17T02:51:59;4.45;;;2.30;;
57667;SDS011;43499;52.366;12.912;2022-09-17T02:54:49;5.10;;;3.03;;
57667;SDS011;43499;52.366;12.912;2022-09-17T03:00:33;4.25;;;2.40;;
57667;SDS011;43499;52.366;12.912;2022-09-17T03:01:37;9.95;;;2.95;;
57667;SDS011;43499;52.366;12.912;2022-09-17T03:02:44;11.30;;;3.15;;
57667;SDS011;43499;52.366;12.912;2022-09-17T03:03:57;4.95;;;2.60;;
57667;SDS011;43499;52.366;12.912;2022-09-17T03:05:00;6.72;;;2.63;;
57667;SDS011;43499;52.366;12.912;2022-09-17T03:06:03;7.45;;;2.35;;
57667;SDS011;43499;52.366;12.912;2022-09-17T03:07:08;5.20;;;2.42;;
57667;SDS011;43499;52.366;12.912;2022-09-17T03:08:12;9.10;;;2.22;;
57667;SDS011;43499;52.366;12.912;2022-09-17T03:09:14;11.80;;;3.17;;
57667;SDS011;43499;52.366;12.912;2022-09-17T03:10:15;5.35;;;2.80;;
57667;SDS011;43499;52.366;12.912;2022-09-17T03:11:17;7.72;;;3.90;;
57667;SDS011;43499;52.366;12.912;2022-09-17T03:12:18;12.45;;;3.30;;
57667;SDS011;43499;52.366;12.912;2022-09-17T03:13:19;16.65;;;3.40;;
57667;SDS011;43499;52.366;12.912;2022-09-17T03:14:20;8.50;;;2.67;;
57667;SDS011;43499;52.366;12.912;2022-09-17T03:15:21;6.40;;;2.72;;
57667;SDS011;43499;52.366;12.912;2022-09-17T03:16:22;9.32;;;2.50;;
57667;SDS011;43499;52.366;12.912;2022-09-17T03:17:23;5.65;;;2.47;;
57667;SDS011;43499;52.366;12.912;2022-09-17T03:18:24;7.47;;;2.67;;
57667;SDS011;43499;52.366;12.912;2022-09-17T03:19:25;4.43;;;2.47;;
57667;SDS011;43499;52.366;12.912;2022-09-17T03:20:27;5.38;;;2.20;;
57667;SDS011;43499;52.366;12.912;2022-09-17T03:21:28;4.88;;;2.42;;
57667;SDS011;43499;52.366;12.912;2022-09-17T03:22:29;7.32;;;2.50;;
57667;SDS011;43499;52.366;12.912;2022-09-17T03:23:30;8.50;;;2.80;;
57667;SDS011;43499;52.366;12.912;2022-09-17T03:24:32;8.32;;;3.17;;
57667;SDS011;43499;52.366;12.912;2022-09-17T03:25:33;13.77;;;2.92;;
57667;SDS011;43499;52.366;12.912;2022-09-17T03:26:34;8.82;;;2.83;;
57667;SDS011;43499;52.366;12.912;2022-09-17T03:27:35;13.57;;;3.13;;
57667;SDS011;43499;52.366;12.912;2022-09-17T03:28:36;10.02;;;2.88;;
57667;SDS011;43499;52.366;12.912;2022-09-17T03:29:37;7.82;;;2.15;;
57667;SDS011;43499;52.366;12.912;2022-09-17T03:30:38;9.18;;;2.42;;
57667;SDS011;43499;52.366;12.912;2022-09-17T03:31:39;11.35;;;3.25;;
57667;SDS011;43499;52.366;12.912;2022-09-17T03:32:41;9.05;;;2.55;;
57667;SDS011;43499;52.366;12.912;2022-09-17T03:33:42;8.35;;;2.35;;
57667;SDS011;43499;52.366;12.912;2022-09-17T03:34:43;5.20;;;2.38;;
57667;SDS011;43499;52.366;12.912;2022-09-17T03:35:44;9.73;;;2.80;;
57667;SDS011;43499;52.366;12.912;2022-09-17T03:36:46;8.65;;;2.85;;
57667;SDS011;43499;52.366;12.912;2022-09-17T03:37:47;3.67;;;2.08;;
57667;SDS011;43499;52.366;12.912;2022-09-17T03:38:48;10.55;;;2.50;;
57667;SDS011;43499;52.366;12.912;2022-09-17T03:39:53;9.25;;;2.63;;
57667;SDS011;43499;52.366;12.912;2022-09-17T03:40:58;10.55;;;2.78;;
57667;SDS011;43499;52.366;12.912;2022-09-17T03:42:00;6.82;;;2.80;;
57667;SDS011;43499;52.366;12.912;2022-09-17T03:43:01;6.78;;;2.60;;
57667;SDS011;43499;52.366;12.912;2022-09-17T03:44:02;11.48;;;2.30;;
57667;SDS011;43499;52.366;12.912;2022-09-17T03:45:03;7.43;;;2.80;;
57667;SDS011;43499;52.366;12.912;2022-09-17T03:46:05;4.85;;;2.47;;
57667;SDS011;43499;52.366;12.912;2022-09-17T03:47:06;7.32;;;2.45;;
57667;SDS011;43499;52.366;12.912;2022-09-17T03:48:07;11.35;;;2.67;;
57667;SDS011;43499;52.366;12.912;2022-09-17T03:49:08;4.95;;;2.50;;
57667;SDS011;43499;52.366;12.912;2022-09-17T03:50:09;9.73;;;2.33;;
57667;SDS011;43499;52.366;12.912;2022-09-17T03:51:10;6.97;;;2.08;;
57667;SDS011;43499;52.366;12.912;2022-09-17T03:52:11;8.77;;;2.55;;
57667;SDS011;43499;52.366;12.912;2022-09-17T03:53:12;13.73;;;2.63;;
57667;SDS011;43499;52.366;12.912;2022-09-17T03:54:13;5.75;;;2.30;;
57667;SDS011;43499;52.366;12.912;2022-09-17T03:55:14;9.32;;;2.90;;
57667;SDS011;43499;52.366;12.912;2022-09-17T03:56:16;6.03;;;2.45;;
57667;SDS011;43499;52.366;12.912;2022-09-17T03:57:17;6.30;;;2.13;;
57667;SDS011;43499;52.366;12.912;2022-09-17T03:58:18;3.72;;;2.40;;
57667;SDS011;43499;52.366;12.912;2022-09-17T03:59:19;4.18;;;2.40;;
57667;SDS011;43499;52.366;12.912;2022-09-17T04:00:20;9.98;;;2.55;;
57667;SDS011;43499;52.366;12.912;2022-09-17T04:01:21;12.70;;;2.92;;
57667;SDS011;43499;52.366;12.912;2022-09-17T04:02:22;8.15;;;2.50;;
57667;SDS011;43499;52.366;12.912;2022-09-17T04:03:24;6.13;;;2.42;;
57667;SDS011;43499;52.366;12.912;2022-09-17T04:04:25;7.32;;;2.42;;
57667;SDS011;43499;52.366;12.912;2022-09-17T04:05:27;8.77;;;2.40;;
57667;SDS011;43499;52.366;12.912;2022-09-17T04:06:28;4.05;;;2.30;;
57667;SDS011;43499;52.366;12.912;2022-09-17T04:07:29;11.32;;;2.72;;
57667;SDS011;43499;52.366;12.912;2022-09-17T04:08:30;7.65;;;2.30;;
57667;SDS011;43499;52.366;12.912;2022-09-17T04:09:31;9.23;;;2.67;;
57667;SDS011;43499;52.366;12.912;2022-09-17T04:10:32;4.05;;;1.80;;
57667;SDS011;43499;52.366;12.912;2022-09-17T04:11:33;6.93;;;2.45;;
57667;SDS011;43499;52.366;12.912;2022-09-17T04:12:34;6.82;;;2.33;;
57667;SDS011;43499;52.366;12.912;2022-09-17T04:13:35;7.68;;;2.67;;
57667;SDS011;43499;52.366;12.912;2022-09-17T04:14:36;10.82;;;2.60;;
57667;SDS011;43499;52.366;12.912;2022-09-17T04:15:37;5.93;;;2.30;;
57667;SDS011;43499;52.366;12.912;2022-09-17T04:16:39;8.07;;;2.40;;
57667;SDS011;43499;52.366;12.912;2022-09-17T04:17:40;6.95;;;1.90;;
57667;SDS011;43499;52.366;12.912;2022-09-17T04:18:41;9.18;;;2.22;;
57667;SDS011;43499;52.366;12.912;2022-09-17T04:19:42;10.07;;;2.92;;
57667;SDS011;43499;52.366;12.912;2022-09-17T04:20:44;6.82;;;2.30;;
57667;SDS011;43499;52.366;12.912;2022-09-17T04:21:45;4.40;;;2.30;;
57667;SDS011;43499;52.366;12.912;2022-09-17T04:22:46;5.57;;;2.15;;
57667;SDS011;43499;52.366;12.912;2022-09-17T04:23:47;4.38;;;2.33;;
57667;SDS011;43499;52.366;12.912;2022-09-17T04:24:48;8.05;;;3.60;;
57667;SDS011;43499;52.366;12.912;2022-09-17T04:25:49;6.05;;;2.58;;
57667;SDS011;43499;52.366;12.912;2022-09-17T04:26:50;4.95;;;1.95;;
57667;SDS011;43499;52.366;12.912;2022-09-17T04:27:51;10.35;;;2.78;;
57667;SDS011;43499;52.366;12.912;2022-09-17T04:28:52;9.35;;;2.30;;
57667;SDS011;43499;52.366;12.912;2022-09-17T04:29:53;4.85;;;2.20;;
57667;SDS011;43499;52.366;12.912;2022-09-17T04:30:54;10.90;;;2.30;;
57667;SDS011;43499;52.366;12.912;2022-09-17T04:31:55;5.97;;;2.58;;
57667;SDS011;43499;52.366;12.912;2022-09-17T04:32:56;7.10;;;2.30;;
57667;SDS011;43499;52.366;12.912;2022-09-17T04:33:57;7.75;;;3.50;;
57667;SDS011;43499;52.366;12.912;2022-09-17T04:34:58;8.40;;;2.50;;
57667;SDS011;43499;52.366;12.912;2022-09-17T04:35:59;5.63;;;2.53;;
57667;SDS011;43499;52.366;12.912;2022-09-17T04:37:00;6.60;;;3.30;;
57667;SDS011;43499;52.366;12.912;2022-09-17T04:38:01;8.82;;;2.22;;
57667;SDS011;43499;52.366;12.912;2022-09-17T04:39:02;6.75;;;2.38;;
57667;SDS011;43499;52.366;12.912;2022-09-17T04:40:04;5.90;;;2.65;;
57667;SDS011;43499;52.366;12.912;2022-09-17T04:41:06;9.10;;;2.60;;
57667;SDS011;43499;52.366;12.912;2022-09-17T04:42:07;7.80;;;2.53;;
57667;SDS011;43499;52.366;12.912;2022-09-17T04:43:09;5.45;;;2.15;;
57667;SDS011;43499;52.366;12.912;2022-09-17T04:44:10;6.55;;;2.20;;
57667;SDS011;43499;52.366;12.912;2022-09-17T04:45:11;8.98;;;3.10;;
57667;SDS011;43499;52.366;12.912;2022-09-17T04:46:12;9.43;;;2.80;;
57667;SDS011;43499;52.366;12.912;2022-09-17T04:47:13;8.48;;;2.67;;
57667;SDS011;43499;52.366;12.912;2022-09-17T04:48:15;5.00;;;2.25;;
57667;SDS011;43499;52.366;12.912;2022-09-17T04:49:16;8.45;;;3.13;;
57667;SDS011;43499;52.366;12.912;2022-09-17T04:50:17;11.75;;;2.70;;
57667;SDS011;43499;52.366;12.912;2022-09-17T04:51:18;7.82;;;3.05;;
57667;SDS011;43499;52.366;12.912;2022-09-17T04:52:19;7.70;;;2.45;;
57667;SDS011;43499;52.366;12.912;2022-09-17T04:53:20;5.60;;;2.45;;
57667;SDS011;43499;52.366;12.912;2022-09-17T04:54:21;12.40;;;2.72;;
57667;SDS011;43499;52.366;12.912;2022-09-17T04:55:22;10.15;;;2.70;;
57667;SDS011;43499;52.366;12.912;2022-09-17T04:56:23;9.18;;;2.55;;
57667;SDS011;43499;52.366;12.912;2022-09-17T04:57:24;14.63;;;2.95;;
57667;SDS011;43499;52.366;12.912;2022-09-17T04:58:26;8.27;;;2.90;;
57667;SDS011;43499;52.366;12.912;2022-09-17T04:59:30;7.40;;;2.85;;
57667;SDS011;43499;52.366;12.912;2022-09-17T05:00:31;6.90;;;3.17;;
57667;SDS011;43499;52.366;12.912;2022-09-17T05:01:32;9.48;;;3.70;;
57667;SDS011;43499;52.366;12.912;2022-09-17T05:02:33;7.97;;;2.70;;
57667;SDS011;43499;52.366;12.912;2022-09-17T05:03:34;7.85;;;3.13;;
57667;SDS011;43499;52.366;12.912;2022-09-17T05:04:35;8.05;;;2.90;;
57667;SDS011;43499;52.366;12.912;2022-09-17T05:05:36;11.02;;;3.30;;
57667;SDS011;43499;52.366;12.912;2022-09-17T05:06:37;9.25;;;3.42;;
57667;SDS011;43499;52.366;12.912;2022-09-17T05:07:38;13.00;;;4.50;;
57667;SDS011;43499;52.366;12.912;2022-09-17T05:08:40;10.18;;;3.17;;
57667;SDS011;43499;52.366;12.912;2022-09-17T05:09:41;20.13;;;3.58;;
57667;SDS011;43499;52.366;12.912;2022-09-17T05:10:42;11.27;;;3.38;;
57667;SDS011;43499;52.366;12.912;2022-09-17T05:11:43;16.42;;;3.72;;
57667;SDS011;43499;52.366;12.912;2022-09-17T05:12:51;10.18;;;3.65;;
57667;SDS011;43499;52.366;12.912;2022-09-17T05:13:53;15.05;;;4.65;;
57667;SDS011;43499;52.366;12.912;2022-09-17T05:14:54;14.13;;;3.38;;
57667;SDS011;43499;52.366;12.912;2022-09-17T05:15:55;11.18;;;3.45;;
57667;SDS011;43499;52.366;12.912;2022-09-17T05:16:56;17.48;;;3.10;;
57667;SDS011;43499;52.366;12.912;2022-09-17T05:17:58;10.52;;;4.13;;
57667;SDS011;43499;52.366;12.912;2022-09-17T05:18:59;8.90;;;3.65;;
57667;SDS011;43499;52.366;12.912;2022-09-17T05:20:00;9.68;;;3.20;;
57667;SDS011;43499;52.366;12.912;2022-09-17T05:21:01;9.13;;;3.72;;
57667;SDS011;43499;52.366;12.912;2022-09-17T05:22:02;13.77;;;2.53;;
57667;SDS011;43499;52.366;12.912;2022-09-17T05:23:03;18.92;;;4.70;;
57667;SDS011;43499;52.366;12.912;2022-09-17T05:24:04;16.17;;;3.60;;
57667;SDS011;43499;52.366;12.912;2022-09-17T05:25:06;12.60;;;3.80;;
57667;SDS011;43499;52.366;12.912;2022-09-17T05:26:07;13.60;;;4.18;;
57667;SDS011;43499;52.366;12.912;2022-09-17T05:27:08;19.48;;;4.53;;
57667;SDS011;43499;52.366;12.912;2022-09-17T05:28:09;20.52;;;5.22;;
57667;SDS011;43499;52.366;12.912;2022-09-17T05:29:10;17.60;;;4.30;;
57667;SDS011;43499;52.366;12.912;2022-09-17T05:30:11;17.42;;;4.13;;
57667;SDS011;43499;52.366;12.912;2022-09-17T05:31:12;17.80;;;4.38;;
57667;SDS011;43499;52.366;12.912;2022-09-17T05:32:14;22.75;;;4.72;;
57667;SDS011;43499;52.366;12.912;2022-09-17T05:33:15;18.83;;;4.28;;
57667;SDS011;43499;52.366;12.912;2022-09-17T05:34:16;23.75;;;5.20;;
57667;SDS011;43499;52.366;12.912;2022-09-17T05:35:17;14.57;;;4.13;;
57667;SDS011;43499;52.366;12.912;2022-09-17T05:36:18;19.98;;;4.20;;
57667;SDS011;43499;52.366;12.912;2022-09-17T05:37:19;15.70;;;4.25;;
57667;SDS011;43499;52.366;12.912;2022-09-17T05:38:20;16.40;;;4.82;;
57667;SDS011;43499;52.366;12.912;2022-09-17T05:39:21;16.85;;;3.65;;
57667;SDS011;43499;52.366;12.912;2022-09-17T05:40:25;14.85;;;3.88;;
57667;SDS011;43499;52.366;12.912;2022-09-17T05:41:26;14.10;;;3.30;;
57667;SDS011;43499;52.366;12.912;2022-09-17T05:42:27;21.55;;;3.85;;
57667;SDS011;43499;52.366;12.912;2022-09-17T05:43:28;14.35;;;4.45;;
57667;SDS011;43499;52.366;12.912;2022-09-17T05:44:30;17.60;;;4.78;;
57667;SDS011;43499;52.366;12.912;2022-09-17T05:45:32;13.18;;;3.50;;
57667;SDS011;43499;52.366;12.912;2022-09-17T05:46:33;12.75;;;3.20;;
57667;SDS011;43499;52.366;12.912;2022-09-17T05:47:34;16.25;;;4.10;;
57667;SDS011;43499;52.366;12.912;2022-09-17T05:48:35;17.92;;;3.92;;
57667;SDS011;43499;52.366;12.912;2022-09-17T05:49:36;9.90;;;3.05;;
57667;SDS011;43499;52.366;12.912;2022-09-17T05:50:38;19.30;;;4.20;;
57667;SDS011;43499;52.366;12.912;2022-09-17T05:51:42;16.10;;;3.33;;
57667;SDS011;43499;52.366;12.912;2022-09-17T05:52:43;19.13;;;4.13;;
57667;SDS011;43499;52.366;12.912;2022-09-17T05:53:44;23.88;;;3.88;;
57667;SDS011;43499;52.366;12.912;2022-09-17T05:54:45;18.38;;;5.22;;
57667;SDS011;43499;52.366;12.912;2022-09-17T05:55:46;23.45;;;4.00;;
57667;SDS011;43499;52.366;12.912;2022-09-17T05:56:47;15.35;;;3.20;;
57667;SDS011;43499;52.366;12.912;2022-09-17T05:57:48;19.15;;;3.70;;
57667;SDS011;43499;52.366;12.912;2022-09-17T05:58:53;20.55;;;5.00;;
57667;SDS011;43499;52.366;12.912;2022-09-17T05:59:55;14.77;;;3.17;;
57667;SDS011;43499;52.366;12.912;2022-09-17T06:00:59;12.23;;;3.50;;
57667;SDS011;43499;52.366;12.912;2022-09-17T06:02:00;15.43;;;2.95;;
57667;SDS011;43499;52.366;12.912;2022-09-17T06:03:01;18.50;;;4.05;;
57667;SDS011;43499;52.366;12.912;2022-09-17T06:04:02;21.38;;;3.63;;
57667;SDS011;43499;52.366;12.912;2022-09-17T06:05:04;14.65;;;3.33;;
57667;SDS011;43499;52.366;12.912;2022-09-17T06:06:06;17.02;;;3.78;;
57667;SDS011;43499;52.366;12.912;2022-09-17T06:07:07;16.58;;;3.70;;
57667;SDS011;43499;52.366;12.912;2022-09-17T06:08:08;17.65;;;3.47;;
57667;SDS011;43499;52.366;12.912;2022-09-17T06:09:10;13.77;;;2.63;;
57667;SDS011;43499;52.366;12.912;2022-09-17T06:10:11;10.15;;;3.15;;
57667;SDS011;43499;52.366;12.912;2022-09-17T06:11:12;16.65;;;3.38;;
57667;SDS011;43499;52.366;12.912;2022-09-17T06:12:13;23.40;;;4.07;;
57667;SDS011;43499;52.366;12.912;2022-09-17T06:13:14;15.40;;;2.90;;
57667;SDS011;43499;52.366;12.912;2022-09-17T06:14:16;12.13;;;2.97;;
57667;SDS011;43499;52.366;12.912;2022-09-17T06:15:17;15.18;;;2.70;;
57667;SDS011;43499;52.366;12.912;2022-09-17T06:16:19;13.80;;;2.25;;
57667;SDS011;43499;52.366;12.912;2022-09-17T06:17:20;14.63;;;3.22;;
57667;SDS011;43499;52.366;12.912;2022-09-17T06:18:21;17.38;;;3.08;;
57667;SDS011;43499;52.366;12.912;2022-09-17T06:19:22;15.75;;;3.28;;
57667;SDS011;43499;52.366;12.912;2022-09-17T06:20:23;22.83;;;3.53;;
57667;SDS011;43499;52.366;12.912;2022-09-17T06:21:24;13.98;;;3.33;;
57667;SDS011;43499;52.366;12.912;2022-09-17T06:22:25;13.48;;;2.80;;
57667;SDS011;43499;52.366;12.912;2022-09-17T06:23:27;20.77;;;3.58;;
57667;SDS011;43499;52.366;12.912;2022-09-17T06:24:34;11.00;;;2.75;;
57667;SDS011;43499;52.366;12.912;2022-09-17T06:25:35;14.13;;;3.97;;
57667;SDS011;43499;52.366;12.912;2022-09-17T06:26:36;12.90;;;2.88;;
57667;SDS011;43499;52.366;12.912;2022-09-17T06:27:37;8.90;;;2.65;;
57667;SDS011;43499;52.366;12.912;2022-09-17T06:28:38;13.75;;;2.83;;
57667;SDS011;43499;52.366;12.912;2022-09-17T06:29:40;14.52;;;3.15;;
57667;SDS011;43499;52.366;12.912;2022-09-17T06:30:41;13.15;;;2.72;;
57667;SDS011;43499;52.366;12.912;2022-09-17T06:31:42;14.30;;;3.80;;
57667;SDS011;43499;52.366;12.912;2022-09-17T06:32:44;13.10;;;3.88;;
57667;SDS011;43499;52.366;12.912;2022-09-17T06:33:45;18.58;;;3.88;;
57667;SDS011;43499;52.366;12.912;2022-09-17T06:34:48;13.07;;;3.10;;
57667;SDS011;43499;52.366;12.912;2022-09-17T06:35:55;15.18;;;3.35;;
57667;SDS011;43499;52.366;12.912;2022-09-17T06:36:56;13.73;;;3.60;;
57667;SDS011;43499;52.366;12.912;2022-09-17T06:37:57;19.98;;;3.63;;
57667;SDS011;43499;52.366;12.912;2022-09-17T06:38:58;12.00;;;2.90;;
57667;SDS011;43499;52.366;12.912;2022-09-17T06:39:59;10.73;;;2.83;;
57667;SDS011;43499;52.366;12.912;2022-09-17T06:41:01;13.38;;;3.00;;
57667;SDS011;43499;52.366;12.912;2022-09-17T06:42:03;10.60;;;2.88;;
57667;SDS011;43499;52.366;12.912;2022-09-17T06:43:04;13.15;;;3.20;;
57667;SDS011;43499;52.366;12.912;2022-09-17T06:44:05;10.32;;;2.88;;
57667;SDS011;43499;52.366;12.912;2022-09-17T06:45:06;13.05;;;3.03;;